sensor_id;sensor_type;location;lat;lon;timestamp;pressure;altitude;pressure_sealevel;temperature;humidity
6599;BME280;3335;43.198;27.918;2022-08-21T00:00:08;153383.78;;;24.60;100.00
6599;BME280;3335;43.198;27.918;2022-08-21T00:02:36;153354.78;;;24.48;100.00
6599;BME280;3335;43.198;27.918;2022-08-21T00:05:03;153315.72;;;24.32;100.00
6599;BME280;3335;43.198;27.918;2022-08-21T00:07:32;153333.34;;;24.39;100.00
6599;BME280;3335;43.198;27.918;2022-08-21T00:09:59;153333.34;;;24.39;100.00
6599;BME280;3335;43.198;27.918;2022-08-21T00:12:26;153310.66;;;24.30;100.00
6599;BME280;3335;43.198;27.918;2022-08-21T00:14:53;153315.72;;;24.32;100.00
6599;BME280;3335;43.198;27.918;2022-08-21T00:17:20;153313.19;;;24.31;100.00
6599;BME280;3335;43.198;27.918;2022-08-21T00:19:48;153315.72;;;24.32;100.00
6599;BME280;3335;43.198;27.918;2022-08-21T00:22:14;153308.13;;;24.29;100.00
6599;BME280;3335;43.198;27.918;2022-08-21T00:24:44;153303.09;;;24.27;100.00
6599;BME280;3335;43.198;27.918;2022-08-21T00:27:11;153305.59;;;24.28;100.00
6599;BME280;3335;43.198;27.918;2022-08-21T00:29:37;153316.94;;;24.33;100.00
6599;BME280;3335;43.198;27.918;2022-08-21T00:32:05;153309.38;;;24.30;100.00
6599;BME280;3335;43.198;27.918;2022-08-21T00:34:32;153190.81;;;23.82;100.00
6599;BME280;3335;43.198;27.918;2022-08-21T00:36:59;153300.56;;;24.26;100.00
6599;BME280;3335;43.198;27.918;2022-08-21T00:39:26;153316.94;;;24.33;100.00
6599;BME280;3335;43.198;27.918;2022-08-21T00:41:54;153318.19;;;24.33;100.00
6599;BME280;3335;43.198;27.918;2022-08-21T00:44:21;153310.66;;;24.30;100.00
6599;BME280;3335;43.198;27.918;2022-08-21T00:46:48;153300.56;;;24.26;100.00
6599;BME280;3335;43.198;27.918;2022-08-21T00:49:15;153315.72;;;24.32;100.00
6599;BME280;3335;43.198;27.918;2022-08-21T00:51:47;153314.44;;;24.32;100.00
6599;BME280;3335;43.198;27.918;2022-08-21T00:54:16;153293.03;;;24.23;100.00
6599;BME280;3335;43.198;27.918;2022-08-21T00:56:44;153309.38;;;24.30;100.00
6599;BME280;3335;43.198;27.918;2022-08-21T00:59:13;153290.50;;;24.22;100.00
6599;BME280;3335;43.198;27.918;2022-08-21T01:01:40;153290.50;;;24.22;100.00
6599;BME280;3335;43.198;27.918;2022-08-21T01:04:07;153311.91;;;24.31;100.00
6599;BME280;3335;43.198;27.918;2022-08-21T01:06:34;153287.97;;;24.21;100.00
6599;BME280;3335;43.198;27.918;2022-08-21T01:09:01;153298.03;;;24.25;100.00
6599;BME280;3335;43.198;27.918;2022-08-21T01:11:27;153275.34;;;24.16;100.00
6599;BME280;3335;43.198;27.918;2022-08-21T01:13:54;153287.97;;;24.21;100.00
6599;BME280;3335;43.198;27.918;2022-08-21T01:16:23;153279.16;;;24.18;100.00
6599;BME280;3335;43.198;27.918;2022-08-21T01:18:50;153257.66;;;24.09;100.00
6599;BME280;3335;43.198;27.918;2022-08-21T01:21:22;153245.06;;;24.04;100.00
6599;BME280;3335;43.198;27.918;2022-08-21T01:23:51;153258.88;;;24.10;100.00
6599;BME280;3335;43.198;27.918;2022-08-21T01:26:20;153251.34;;;24.07;100.00
6599;BME280;3335;43.198;27.918;2022-08-21T01:28:54;153229.91;;;23.98;100.00
6599;BME280;3335;43.198;27.918;2022-08-21T01:31:24;153237.47;;;24.01;100.00
6599;BME280;3335;43.198;27.918;2022-08-21T01:33:52;153202.16;;;23.87;100.00
6599;BME280;3335;43.198;27.918;2022-08-21T01:36:21;153214.78;;;23.92;100.00
6599;BME280;3335;43.198;27.918;2022-08-21T01:38:49;153222.31;;;23.95;100.00
6599;BME280;3335;43.198;27.918;2022-08-21T01:41:16;153116.44;;;23.52;100.00
6599;BME280;3335;43.198;27.918;2022-08-21T01:43:44;153233.72;;;24.00;100.00
6599;BME280;3335;43.198;27.918;2022-08-21T01:46:11;153243.78;;;24.04;100.00
6599;BME280;3335;43.198;27.918;2022-08-21T01:48:39;153217.31;;;23.93;100.00
6599;BME280;3335;43.198;27.918;2022-08-21T01:51:06;153182.00;;;23.79;100.00
6599;BME280;3335;43.198;27.918;2022-08-21T01:53:35;153190.81;;;23.82;100.00
6599;BME280;3335;43.198;27.918;2022-08-21T01:56:04;152917.31;;;22.73;100.00
6599;BME280;3335;43.198;27.918;2022-08-21T01:58:32;153187.03;;;23.81;100.00
6599;BME280;3335;43.198;27.918;2022-08-21T02:00:59;153182.00;;;23.79;100.00
6599;BME280;3335;43.198;27.918;2022-08-21T02:03:27;153188.28;;;23.81;100.00
6599;BME280;3335;43.198;27.918;2022-08-21T02:05:54;153194.63;;;23.84;100.00
6599;BME280;3335;43.198;27.918;2022-08-21T02:08:21;153197.16;;;23.85;100.00
6599;BME280;3335;43.198;27.918;2022-08-21T02:10:51;153192.09;;;23.83;100.00
6599;BME280;3335;43.198;27.918;2022-08-21T02:13:18;153179.47;;;23.78;100.00
6599;BME280;3335;43.198;27.918;2022-08-21T02:15:45;153161.84;;;23.71;100.00
6599;BME280;3335;43.198;27.918;2022-08-21T02:18:12;153154.25;;;23.68;100.00
6599;BME280;3335;43.198;27.918;2022-08-21T02:20:44;153171.94;;;23.75;100.00
6599;BME280;3335;43.198;27.918;2022-08-21T02:23:12;153164.34;;;23.72;100.00
6599;BME280;3335;43.198;27.918;2022-08-21T02:25:40;153121.50;;;23.54;100.00
6599;BME280;3335;43.198;27.918;2022-08-21T02:28:10;153139.19;;;23.62;100.00
6599;BME280;3335;43.198;27.918;2022-08-21T02:30:40;153151.72;;;23.67;100.00
6599;BME280;3335;43.198;27.918;2022-08-21T02:33:08;153126.56;;;23.57;100.00
6599;BME280;3335;43.198;27.918;2022-08-21T02:35:36;153136.66;;;23.61;100.00
6599;BME280;3335;43.198;27.918;2022-08-21T02:38:06;153154.25;;;23.68;100.00
6599;BME280;3335;43.198;27.918;2022-08-21T02:40:36;153134.13;;;23.60;100.00
6599;BME280;3335;43.198;27.918;2022-08-21T02:43:04;153136.66;;;23.61;100.00
6599;BME280;3335;43.198;27.918;2022-08-21T02:45:34;153146.72;;;23.65;100.00
6599;BME280;3335;43.198;27.918;2022-08-21T02:48:03;152981.59;;;22.98;100.00
6599;BME280;3335;43.198;27.918;2022-08-21T02:50:33;153140.38;;;23.62;100.00
6599;BME280;3335;43.198;27.918;2022-08-21T02:53:00;153120.25;;;23.54;100.00
6599;BME280;3335;43.198;27.918;2022-08-21T02:55:29;153132.84;;;23.59;100.00
6599;BME280;3335;43.198;27.918;2022-08-21T02:57:58;153137.91;;;23.61;100.00
6599;BME280;3335;43.198;27.918;2022-08-21T03:00:28;153125.31;;;23.56;100.00
6599;BME280;3335;43.198;27.918;2022-08-21T03:02:58;153116.44;;;23.52;100.00
6599;BME280;3335;43.198;27.918;2022-08-21T03:05:27;153135.38;;;23.60;100.00
6599;BME280;3335;43.198;27.918;2022-08-21T03:07:57;153121.50;;;23.54;100.00
6599;BME280;3335;43.198;27.918;2022-08-21T03:10:25;153131.59;;;23.59;100.00
6599;BME280;3335;43.198;27.918;2022-08-21T03:12:52;153126.56;;;23.57;100.00
6599;BME280;3335;43.198;27.918;2022-08-21T03:15:21;153116.44;;;23.52;100.00
6599;BME280;3335;43.198;27.918;2022-08-21T03:17:49;153121.50;;;23.54;100.00
6599;BME280;3335;43.198;27.918;2022-08-21T03:20:20;153121.50;;;23.54;100.00
6599;BME280;3335;43.198;27.918;2022-08-21T03:22:48;153093.72;;;23.43;100.00
6599;BME280;3335;43.198;27.918;2022-08-21T03:25:15;153111.44;;;23.50;100.00
6599;BME280;3335;43.198;27.918;2022-08-21T03:27:43;153121.50;;;23.54;100.00
6599;BME280;3335;43.198;27.918;2022-08-21T03:30:11;153117.72;;;23.53;100.00
6599;BME280;3335;43.198;27.918;2022-08-21T03:32:38;153093.72;;;23.43;100.00
6599;BME280;3335;43.198;27.918;2022-08-21T03:35:07;153113.97;;;23.51;100.00
6599;BME280;3335;43.198;27.918;2022-08-21T03:37:36;153116.44;;;23.52;100.00
6599;BME280;3335;43.198;27.918;2022-08-21T03:40:03;153096.28;;;23.44;100.00
6599;BME280;3335;43.198;27.918;2022-08-21T03:42:30;153093.72;;;23.43;100.00
6599;BME280;3335;43.198;27.918;2022-08-21T03:44:57;153136.66;;;23.61;100.00
6599;BME280;3335;43.198;27.918;2022-08-21T03:47:24;153149.25;;;23.66;100.00
6599;BME280;3335;43.198;27.918;2022-08-21T03:49:51;153150.53;;;23.66;100.00
6599;BME280;3335;43.198;27.918;2022-08-21T03:52:18;153142.91;;;23.63;100.00
6599;BME280;3335;43.198;27.918;2022-08-21T03:54:46;153140.38;;;23.62;100.00
6599;BME280;3335;43.198;27.918;2022-08-21T03:57:13;153156.78;;;23.69;100.00
6599;BME280;3335;43.198;27.918;2022-08-21T03:59:40;153166.88;;;23.73;100.00
6599;BME280;3335;43.198;27.918;2022-08-21T04:02:08;153171.94;;;23.75;100.00
6599;BME280;3335;43.198;27.918;2022-08-21T04:04:36;153150.53;;;23.66;100.00
6599;BME280;3335;43.198;27.918;2022-08-21T04:07:03;153156.78;;;23.69;100.00
6599;BME280;3335;43.198;27.918;2022-08-21T04:09:31;153149.25;;;23.66;100.00
6599;BME280;3335;43.198;27.918;2022-08-21T04:11:59;153151.72;;;23.67;100.00
6599;BME280;3335;43.198;27.918;2022-08-21T04:14:26;153146.72;;;23.65;100.00
6599;BME280;3335;43.198;27.918;2022-08-21T04:16:53;153121.50;;;23.54;100.00
6599;BME280;3335;43.198;27.918;2022-08-21T04:19:20;153132.84;;;23.59;100.00
6599;BME280;3335;43.198;27.918;2022-08-21T04:21:47;153139.19;;;23.62;100.00
6599;BME280;3335;43.198;27.918;2022-08-21T04:24:15;153140.38;;;23.62;100.00
6599;BME280;3335;43.198;27.918;2022-08-21T04:26:41;153156.78;;;23.69;100.00
6599;BME280;3335;43.198;27.918;2022-08-21T04:29:10;153153.00;;;23.67;100.00
6599;BME280;3335;43.198;27.918;2022-08-21T04:31:37;153166.88;;;23.73;100.00
6599;BME280;3335;43.198;27.918;2022-08-21T04:34:04;153174.47;;;23.76;100.00
6599;BME280;3335;43.198;27.918;2022-08-21T04:36:31;153194.63;;;23.84;100.00
6599;BME280;3335;43.198;27.918;2022-08-21T04:38:58;153212.25;;;23.91;100.00
6599;BME280;3335;43.198;27.918;2022-08-21T04:41:25;153226.13;;;23.96;100.00
6599;BME280;3335;43.198;27.918;2022-08-21T04:43:52;153193.34;;;23.83;100.00
6599;BME280;3335;43.198;27.918;2022-08-21T04:46:22;153219.84;;;23.94;100.00
6599;BME280;3335;43.198;27.918;2022-08-21T04:48:49;153165.59;;;23.72;100.00
6599;BME280;3335;43.198;27.918;2022-08-21T04:51:19;153222.31;;;23.95;100.00
6599;BME280;3335;43.198;27.918;2022-08-21T04:53:51;153210.97;;;23.90;100.00
6599;BME280;3335;43.198;27.918;2022-08-21T04:56:21;153200.91;;;23.86;100.00
6599;BME280;3335;43.198;27.918;2022-08-21T04:58:51;153232.44;;;23.99;100.00
6599;BME280;3335;43.198;27.918;2022-08-21T05:01:21;153232.44;;;23.99;100.00
6599;BME280;3335;43.198;27.918;2022-08-21T05:03:53;153227.38;;;23.97;100.00
6599;BME280;3335;43.198;27.918;2022-08-21T05:06:23;153242.53;;;24.03;100.00
6599;BME280;3335;43.198;27.918;2022-08-21T05:08:52;153260.16;;;24.10;100.00
6599;BME280;3335;43.198;27.918;2022-08-21T05:11:20;153270.22;;;24.14;100.00
6599;BME280;3335;43.198;27.918;2022-08-21T05:13:47;153262.69;;;24.11;100.00
6599;BME280;3335;43.198;27.918;2022-08-21T05:16:14;153296.78;;;24.25;100.00
6599;BME280;3335;43.198;27.918;2022-08-21T05:18:42;153309.38;;;24.30;100.00
6599;BME280;3335;43.198;27.918;2022-08-21T05:21:10;153318.19;;;24.33;100.00
6599;BME280;3335;43.198;27.918;2022-08-21T05:23:37;153328.31;;;24.37;100.00
6599;BME280;3335;43.198;27.918;2022-08-21T05:26:04;153339.66;;;24.42;100.00
6599;BME280;3335;43.198;27.918;2022-08-21T05:28:31;153368.66;;;24.54;100.00
6599;BME280;3335;43.198;27.918;2022-08-21T05:30:58;153386.31;;;24.61;100.00
6599;BME280;3335;43.198;27.918;2022-08-21T05:33:25;153403.97;;;24.68;100.00
6599;BME280;3335;43.198;27.918;2022-08-21T05:35:53;153415.31;;;24.72;100.00
6599;BME280;3335;43.198;27.918;2022-08-21T05:38:23;153443.06;;;24.83;100.00
6599;BME280;3335;43.198;27.918;2022-08-21T05:40:50;153464.56;;;24.92;100.00
6599;BME280;3335;43.198;27.918;2022-08-21T05:43:17;153479.72;;;24.98;100.00
6599;BME280;3335;43.198;27.918;2022-08-21T05:45:44;153486.00;;;25.01;100.00
6599;BME280;3335;43.198;27.918;2022-08-21T05:48:12;153494.81;;;25.04;100.00
6599;BME280;3335;43.198;27.918;2022-08-21T05:50:39;153492.31;;;25.03;100.00
6599;BME280;3335;43.198;27.918;2022-08-21T05:53:07;153492.31;;;25.03;100.00
6599;BME280;3335;43.198;27.918;2022-08-21T05:55:37;153499.88;;;25.06;100.00
6599;BME280;3335;43.198;27.918;2022-08-21T05:58:04;153517.56;;;25.13;100.00
6599;BME280;3335;43.198;27.918;2022-08-21T06:00:31;153536.47;;;25.21;100.00
6599;BME280;3335;43.198;27.918;2022-08-21T06:02:59;153552.88;;;25.27;100.00
6599;BME280;3335;43.198;27.918;2022-08-21T06:05:26;153566.72;;;25.33;100.00
6599;BME280;3335;43.198;27.918;2022-08-21T06:07:53;153580.63;;;25.39;100.00
6599;BME280;3335;43.198;27.918;2022-08-21T06:10:20;153580.63;;;25.39;100.00
6599;BME280;3335;43.198;27.918;2022-08-21T06:12:52;153615.94;;;25.53;100.00
6599;BME280;3335;43.198;27.918;2022-08-21T06:15:19;153634.94;;;25.60;100.00
6599;BME280;3335;43.198;27.918;2022-08-21T06:17:47;153646.31;;;25.65;100.00
6599;BME280;3335;43.198;27.918;2022-08-21T06:20:13;153655.13;;;25.68;100.00
6599;BME280;3335;43.198;27.918;2022-08-21T06:22:40;153679.09;;;25.78;100.00
6599;BME280;3335;43.198;27.918;2022-08-21T06:25:08;153703.09;;;25.88;100.00
6599;BME280;3335;43.198;27.918;2022-08-21T06:27:36;153727.06;;;25.97;100.00
6599;BME280;3335;43.198;27.918;2022-08-21T06:30:06;153724.53;;;25.96;100.00
6599;BME280;3335;43.198;27.918;2022-08-21T06:32:33;153732.09;;;25.99;100.00
6599;BME280;3335;43.198;27.918;2022-08-21T06:35:00;153745.97;;;26.05;100.00
6599;BME280;3335;43.198;27.918;2022-08-21T06:37:27;153759.88;;;26.10;100.00
6599;BME280;3335;43.198;27.918;2022-08-21T06:39:54;153732.09;;;25.99;100.00
6599;BME280;3335;43.198;27.918;2022-08-21T06:42:21;153729.59;;;25.98;100.00
6599;BME280;3335;43.198;27.918;2022-08-21T06:44:48;153723.25;;;25.96;100.00
6599;BME280;3335;43.198;27.918;2022-08-21T06:47:17;153782.59;;;26.20;100.00
6599;BME280;3335;43.198;27.918;2022-08-21T06:49:43;153790.25;;;26.23;100.00
6599;BME280;3335;43.198;27.918;2022-08-21T06:52:11;153797.78;;;26.26;100.00
6599;BME280;3335;43.198;27.918;2022-08-21T06:54:39;153826.81;;;26.37;100.00
6599;BME280;3335;43.198;27.918;2022-08-21T06:57:06;153838.22;;;26.42;100.00
6599;BME280;3335;43.198;27.918;2022-08-21T06:59:33;153848.31;;;26.46;100.00
6599;BME280;3335;43.198;27.918;2022-08-21T07:02:00;153863.41;;;26.52;100.00
6599;BME280;3335;43.198;27.918;2022-08-21T07:04:28;153888.69;;;26.62;100.00
6599;BME280;3335;43.198;27.918;2022-08-21T07:06:55;153906.38;;;26.69;100.00
6599;BME280;3335;43.198;27.918;2022-08-21T07:09:22;153913.94;;;26.72;100.00
6599;BME280;3335;43.198;27.918;2022-08-21T07:11:51;153917.75;;;26.74;100.00
6599;BME280;3335;43.198;27.918;2022-08-21T07:14:18;153867.22;;;26.53;100.00
6599;BME280;3335;43.198;27.918;2022-08-21T07:16:45;153959.44;;;26.90;100.00
6599;BME280;3335;43.198;27.918;2022-08-21T07:19:12;153984.72;;;27.01;100.00
6599;BME280;3335;43.198;27.918;2022-08-21T07:21:40;154001.16;;;27.07;100.00
6599;BME280;3335;43.198;27.918;2022-08-21T07:24:07;154012.50;;;27.12;100.00
6599;BME280;3335;43.198;27.918;2022-08-21T07:26:34;154002.41;;;27.08;100.00
6599;BME280;3335;43.198;27.918;2022-08-21T07:29:02;154037.78;;;27.22;100.00
6599;BME280;3335;43.198;27.918;2022-08-21T07:31:29;154060.50;;;27.31;100.00
6599;BME280;3335;43.198;27.918;2022-08-21T07:33:55;154083.25;;;27.40;100.00
6599;BME280;3335;43.198;27.918;2022-08-21T07:36:22;154100.91;;;27.47;100.00
6599;BME280;3335;43.198;27.918;2022-08-21T07:38:51;154126.22;;;27.57;100.00
6599;BME280;3335;43.198;27.918;2022-08-21T07:41:24;154141.41;;;27.63;100.00
6599;BME280;3335;43.198;27.918;2022-08-21T07:43:53;154156.56;;;27.69;100.00
6599;BME280;3335;43.198;27.918;2022-08-21T07:46:20;154176.78;;;27.77;100.00
6599;BME280;3335;43.198;27.918;2022-08-21T07:48:47;154189.41;;;27.82;100.00
6599;BME280;3335;43.198;27.918;2022-08-21T07:51:16;154198.25;;;27.86;100.00
6599;BME280;3335;43.198;27.918;2022-08-21T07:53:48;154209.63;;;27.91;100.00
6599;BME280;3335;43.198;27.918;2022-08-21T07:56:17;154229.88;;;27.99;100.00
6599;BME280;3335;43.198;27.918;2022-08-21T07:58:44;154246.28;;;28.05;100.00
6599;BME280;3335;43.198;27.918;2022-08-21T08:01:11;154275.41;;;28.17;100.00
6599;BME280;3335;43.198;27.918;2022-08-21T08:03:38;154295.59;;;28.25;100.00
6599;BME280;3335;43.198;27.918;2022-08-21T08:06:05;154329.72;;;28.39;100.00
6599;BME280;3335;43.198;27.918;2022-08-21T08:08:34;154353.75;;;28.48;100.00
6599;BME280;3335;43.198;27.918;2022-08-21T08:11:01;154366.38;;;28.53;100.00
6599;BME280;3335;43.198;27.918;2022-08-21T08:13:29;154401.78;;;28.67;100.00
6599;BME280;3335;43.198;27.918;2022-08-21T08:15:56;154419.56;;;28.75;100.00
6599;BME280;3335;43.198;27.918;2022-08-21T08:18:23;154409.34;;;28.70;100.00
6599;BME280;3335;43.198;27.918;2022-08-21T08:20:50;154442.31;;;28.84;100.00
6599;BME280;3335;43.198;27.918;2022-08-21T08:23:17;154454.94;;;28.89;100.00
6599;BME280;3335;43.198;27.918;2022-08-21T08:25:44;154459.97;;;28.91;100.00
6599;BME280;3335;43.198;27.918;2022-08-21T08:28:11;154447.34;;;28.86;100.00
6599;BME280;3335;43.198;27.918;2022-08-21T08:30:40;154433.41;;;28.80;100.00
6599;BME280;3335;43.198;27.918;2022-08-21T08:33:08;154439.75;;;28.83;100.00
6599;BME280;3335;43.198;27.918;2022-08-21T08:35:35;154418.28;;;28.74;100.00
6599;BME280;3335;43.198;27.918;2022-08-21T08:38:02;154453.69;;;28.88;100.00
6599;BME280;3335;43.198;27.918;2022-08-21T08:40:33;154495.38;;;29.05;100.00
6599;BME280;3335;43.198;27.918;2022-08-21T08:43:04;154505.50;;;29.09;100.00
6599;BME280;3335;43.198;27.918;2022-08-21T08:45:35;154500.47;;;29.07;100.00
6599;BME280;3335;43.198;27.918;2022-08-21T08:48:08;154513.09;;;29.12;100.00
6599;BME280;3335;43.198;27.918;2022-08-21T08:50:40;154533.31;;;29.20;100.00
6599;BME280;3335;43.198;27.918;2022-08-21T08:53:19;154561.22;;;29.31;100.00
6599;BME280;3335;43.198;27.918;2022-08-21T08:55:51;154582.69;;;29.40;100.00
6599;BME280;3335;43.198;27.918;2022-08-21T08:58:23;154580.16;;;29.39;100.00
6599;BME280;3335;43.198;27.918;2022-08-21T09:00:51;154613.03;;;29.52;100.00
6599;BME280;3335;43.198;27.918;2022-08-21T09:03:21;154591.53;;;29.43;100.00
6599;BME280;3335;43.198;27.918;2022-08-21T09:05:55;154604.19;;;29.48;100.00
6599;BME280;3335;43.198;27.918;2022-08-21T09:08:37;154626.94;;;29.58;100.00
6599;BME280;3335;43.198;27.918;2022-08-21T09:11:10;154647.16;;;29.66;100.00
6599;BME280;3335;43.198;27.918;2022-08-21T09:13:48;154649.72;;;29.67;100.00
6599;BME280;3335;43.198;27.918;2022-08-21T09:16:20;154667.44;;;29.74;100.00
6599;BME280;3335;43.198;27.918;2022-08-21T09:18:59;154697.78;;;29.86;100.00
6599;BME280;3335;43.198;27.918;2022-08-21T09:21:38;154715.56;;;29.93;100.00
6599;BME280;3335;43.198;27.918;2022-08-21T09:24:21;154701.59;;;29.87;100.00
6599;BME280;3335;43.198;27.918;2022-08-21T09:26:56;154730.72;;;29.99;100.00
6599;BME280;3335;43.198;27.918;2022-08-21T09:29:30;154759.81;;;30.11;100.00
6599;BME280;3335;43.198;27.918;2022-08-21T09:31:58;154773.75;;;30.16;100.00
6599;BME280;3335;43.198;27.918;2022-08-21T09:34:28;154781.31;;;30.19;100.00
6599;BME280;3335;43.198;27.918;2022-08-21T09:36:57;154767.41;;;30.14;100.00
6599;BME280;3335;43.198;27.918;2022-08-21T09:39:27;154793.97;;;30.24;100.00
6599;BME280;3335;43.198;27.918;2022-08-21T09:41:59;154791.44;;;30.23;100.00
6599;BME280;3335;43.198;27.918;2022-08-21T09:44:29;154791.44;;;30.23;100.00
6599;BME280;3335;43.198;27.918;2022-08-21T09:46:57;154818.03;;;30.34;100.00
6599;BME280;3335;43.198;27.918;2022-08-21T09:49:31;154824.38;;;30.36;100.00
6599;BME280;3335;43.198;27.918;2022-08-21T09:51:59;154830.69;;;30.39;100.00
6599;BME280;3335;43.198;27.918;2022-08-21T09:54:30;154864.88;;;30.53;100.00
6599;BME280;3335;43.198;27.918;2022-08-21T09:57:00;154887.66;;;30.62;100.00
6599;BME280;3335;43.198;27.918;2022-08-21T09:59:45;154910.44;;;30.71;100.00
6599;BME280;3335;43.198;27.918;2022-08-21T10:02:26;154923.09;;;30.76;100.00
6599;BME280;3335;43.198;27.918;2022-08-21T10:04:57;154933.22;;;30.80;100.00
6599;BME280;3335;43.198;27.918;2022-08-21T10:07:26;154950.94;;;30.87;100.00
6599;BME280;3335;43.198;27.918;2022-08-21T10:10:02;154956.00;;;30.89;100.00
6599;BME280;3335;43.198;27.918;2022-08-21T10:12:36;154976.28;;;30.97;100.00
6599;BME280;3335;43.198;27.918;2022-08-21T10:15:12;154988.97;;;31.02;100.00
6599;BME280;3335;43.198;27.918;2022-08-21T10:17:47;155002.91;;;31.08;100.00
6599;BME280;3335;43.198;27.918;2022-08-21T10:20:22;154981.31;;;30.99;100.00
6599;BME280;3335;43.198;27.918;2022-08-21T10:23:00;154935.75;;;30.81;100.00
6599;BME280;3335;43.198;27.918;2022-08-21T10:25:33;154991.47;;;31.03;100.00
6599;BME280;3335;43.198;27.918;2022-08-21T10:28:09;155033.28;;;31.20;100.00
6599;BME280;3335;43.198;27.918;2022-08-21T10:30:44;155080.09;;;31.39;100.00
6599;BME280;3335;43.198;27.918;2022-08-21T10:33:25;155037.09;;;31.21;100.00
6599;BME280;3335;43.198;27.918;2022-08-21T10:36:03;155014.31;;;31.12;100.00
6599;BME280;3335;43.198;27.918;2022-08-21T10:38:52;155006.69;;;31.09;100.00
6599;BME280;3335;43.198;27.918;2022-08-21T10:41:28;155026.91;;;31.17;100.00
6599;BME280;3335;43.198;27.918;2022-08-21T10:44:07;154999.09;;;31.06;100.00
6599;BME280;3335;43.198;27.918;2022-08-21T10:46:45;155025.69;;;31.17;100.00
6599;BME280;3335;43.198;27.918;2022-08-21T10:49:22;155057.31;;;31.30;100.00
6599;BME280;3335;43.198;27.918;2022-08-21T10:52:06;155062.38;;;31.32;100.00
6599;BME280;3335;43.198;27.918;2022-08-21T10:54:40;155100.34;;;31.47;100.00
6599;BME280;3335;43.198;27.918;2022-08-21T10:57:19;155097.84;;;31.46;100.00
6599;BME280;3335;43.198;27.918;2022-08-21T10:59:56;155100.34;;;31.47;100.00
6599;BME280;3335;43.198;27.918;2022-08-21T11:02:29;155032.00;;;31.19;100.00
6599;BME280;3335;43.198;27.918;2022-08-21T11:05:01;155085.19;;;31.41;100.00
6599;BME280;3335;43.198;27.918;2022-08-21T11:07:35;155078.84;;;31.38;100.00
6599;BME280;3335;43.198;27.918;2022-08-21T11:10:08;155100.34;;;31.47;100.00
6599;BME280;3335;43.198;27.918;2022-08-21T11:12:41;155120.66;;;31.55;100.00
6599;BME280;3335;43.198;27.918;2022-08-21T11:15:26;155132.09;;;31.59;100.00
6599;BME280;3335;43.198;27.918;2022-08-21T11:18:02;155132.09;;;31.59;100.00
6599;BME280;3335;43.198;27.918;2022-08-21T11:20:36;155133.34;;;31.60;100.00
6599;BME280;3335;43.198;27.918;2022-08-21T11:23:13;155070.00;;;31.35;100.00
6599;BME280;3335;43.198;27.918;2022-08-21T11:25:49;155085.19;;;31.41;100.00
6599;BME280;3335;43.198;27.918;2022-08-21T11:28:24;155072.53;;;31.36;100.00
6599;BME280;3335;43.198;27.918;2022-08-21T11:30:59;155102.91;;;31.48;100.00
6599;BME280;3335;43.198;27.918;2022-08-21T11:33:43;155125.72;;;31.57;100.00
6599;BME280;3335;43.198;27.918;2022-08-21T11:36:20;155049.75;;;31.26;100.00
6599;BME280;3335;43.198;27.918;2022-08-21T11:38:57;155077.56;;;31.38;100.00
6599;BME280;3335;43.198;27.918;2022-08-21T11:41:31;155138.41;;;31.62;100.00
6599;BME280;3335;43.198;27.918;2022-08-21T11:44:08;155128.28;;;31.58;100.00
6599;BME280;3335;43.198;27.918;2022-08-21T11:46:41;155123.19;;;31.56;100.00
6599;BME280;3335;43.198;27.918;2022-08-21T11:49:27;155110.47;;;31.51;100.00
6599;BME280;3335;43.198;27.918;2022-08-21T11:52:07;155133.34;;;31.60;100.00
6599;BME280;3335;43.198;27.918;2022-08-21T11:54:40;155107.97;;;31.50;100.00
6599;BME280;3335;43.198;27.918;2022-08-21T11:57:16;155152.34;;;31.67;100.00
6599;BME280;3335;43.198;27.918;2022-08-21T11:59:49;155165.00;;;31.73;100.00
6599;BME280;3335;43.198;27.918;2022-08-21T12:02:21;155161.19;;;31.71;100.00
6599;BME280;3335;43.198;27.918;2022-08-21T12:04:54;155181.44;;;31.79;100.00
6599;BME280;3335;43.198;27.918;2022-08-21T12:07:33;155173.84;;;31.76;100.00
6599;BME280;3335;43.198;27.918;2022-08-21T12:10:04;155090.22;;;31.43;100.00
6599;BME280;3335;43.198;27.918;2022-08-21T12:12:34;155042.13;;;31.23;100.00
6599;BME280;3335;43.198;27.918;2022-08-21T12:15:17;155088.97;;;31.42;100.00
6599;BME280;3335;43.198;27.918;2022-08-21T12:17:59;155158.63;;;31.70;100.00
6599;BME280;3335;43.198;27.918;2022-08-21T12:20:44;155181.44;;;31.79;100.00
6599;BME280;3335;43.198;27.918;2022-08-21T12:23:28;155211.84;;;31.91;100.00
6599;BME280;3335;43.198;27.918;2022-08-21T12:26:09;155224.50;;;31.96;100.00
6599;BME280;3335;43.198;27.918;2022-08-21T12:28:37;155143.47;;;31.64;100.00
6599;BME280;3335;43.198;27.918;2022-08-21T12:31:17;155135.84;;;31.61;100.00
6599;BME280;3335;43.198;27.918;2022-08-21T12:33:51;155113.00;;;31.52;100.00
6599;BME280;3335;43.198;27.918;2022-08-21T12:36:21;155109.25;;;31.50;100.00
6599;BME280;3335;43.198;27.918;2022-08-21T12:38:54;155085.19;;;31.41;100.00
6599;BME280;3335;43.198;27.918;2022-08-21T12:41:27;155140.94;;;31.63;100.00
6599;BME280;3335;43.198;27.918;2022-08-21T12:43:59;155115.56;;;31.53;100.00
6599;BME280;3335;43.198;27.918;2022-08-21T12:46:32;155145.97;;;31.65;100.00
6599;BME280;3335;43.198;27.918;2022-08-21T12:49:09;155067.44;;;31.34;100.00
6599;BME280;3335;43.198;27.918;2022-08-21T12:51:54;155115.56;;;31.53;100.00
6599;BME280;3335;43.198;27.918;2022-08-21T12:54:24;155090.22;;;31.43;100.00
6599;BME280;3335;43.198;27.918;2022-08-21T12:57:05;155119.38;;;31.54;100.00
6599;BME280;3335;43.198;27.918;2022-08-21T12:59:37;155173.84;;;31.76;100.00
6599;BME280;3335;43.198;27.918;2022-08-21T13:02:12;155175.13;;;31.77;100.00
6599;BME280;3335;43.198;27.918;2022-08-21T13:04:42;155168.81;;;31.74;100.00